Angel Fire, New Mexico
Current Conditions -  °F | °C
As of 11:15 AM on Thursday 29 Jan 2015 (Local Time) from KAXX Reporting Station
Scattered Clouds Scattered Clouds  
Wind Chill: 28°   Ceiling: Unl
Heat Index: 37°   Visibility: 10mi
Dew Point: 27°   Wind: 17mph
Humidity: 66%   Direction: 170°S
Pressure: 30.49"   Gusts: NA
Location:  36.39°N, 105.29°W
Report Text: KAXX 291815Z AUTO 17015KT 10SM SCT030 SCT038 SCT075 03/M03 A3049 RMK AO2 T00291029
Loading
Personal Weather Stations






























Interactive Weather Map New forecast layout! Learn more

10-Day Weather Forecast

Advertisements
Track Severe Weather on mobile